Dvinskoy Bereznik, Russia
Current Conditions -  °F | °C
As of 7:00 AM on Sunday 26 Oct 2014 (Local Time) from UUYY Reporting Station
Light Snow Light Snow  
Wind Chill: 16°   Ceiling: 6600
Heat Index: 16°   Visibility: 6mi
Dew Point: 12°   Wind: 0mph
Humidity: 86%   Direction: NA
Pressure: 30.39"   Gusts: NA
Location:  61.7°N, 45.53°E
Report Text: UUYY 260400Z 00000MPS 9000 -SN OVC066 M09/M11 Q1029 TEMPO 2000BR 0182//49 RMK QFE762/1017
Loading
Personal Weather Stations






























Interactive Weather Map
Tropical Storm Tracking
New forecast layout! Learn more

10-Day Weather Forecast

Advertisements
Track Severe Weather on mobile